North Bay Airport
CYYB : now visible

Airfield :











YOU CAN JOIN US ON...

 
LOGIN :

Register | Disclaimer

   EN    FR    IT 

 









Legend :    VFR   Marginal VFR   IFR   Intensive IFR   Very Intensive IFR
Visi :
Ceiling :
>= 8 km
>= 3000ft
5 to 8 km
1000 to 3000 ft
1500m to 5 km
500 to 1000 ft
800 to 1500m
200 to 500 ft
< 800m
< 200 ft
Symbols :   Thunderstorms  Fog  Heavy snow  Heavy precipitations  Wind > 20 kt






- Airport Elevation : 1215 ft
- IATA code : YYB


CYYB - North Bay

CURRENT METAR :
  • 071800Z 34014G20KT 30SM BKN012 04/00 A3011 RMK CU6 VC SH SLP213

EXPIRED METARs :
  • 071700Z 34016G27KT 15SM SCT015 03/01 A3011 RMK SC4 SLP212
  • 071643Z 35012G23KT 15SM -SN BKN015 04/01 A3010 RMK SC7 SLP210
  • 071626Z 36016G26KT 30SM SCT017 SCT060 03/01 A3010 RMK SC3NS1 SLP209
  • 071613Z 35017G25KT 12SM -SN BKN015 BKN023 03/01 A3010 RMK SC6SC2 VIS LWR N-E SLP210
  • 071600Z 35014G25KT 30SM SCT013 04/02 A3010 RMK SC4 SLP209
  • 071548Z 35017G25KT 30SM SCT013 04/02 A3011 RMK SC4 SLP210

TAF TAF CYYB
Valid from the 07 at 14:00 until the 08 at 02:00 UTC


071341Z 0714/0802 35012KT P6SM SCT007 OVC030
TEMPO 0714/0716 3SM -SHSNRA BR BKN007 OVC020
FM071600 35012G22KT P6SM BKN030 BKN080
TEMPO 0716/0718 P6SM -SHRA BKN020 OVC080
BECMG 0716/0718 33012KT
FM071800 33012KT P6SM BKN030
BECMG 0718/0720 SCT030
BECMG 0723/0801 31008KT RMK NXT FCST BY 072000Z
CZYZ FIR / North America



MET'MAP, your aeronautical weather chart ! - Copyright ORBIFLY December 2007 - Disclaimer

ORBIFLY MET'MAP TEAM :

Programming & Development : Alexandra Zaïnal
Original concept : Baudouin d'Aumeries
Technical & hardware support : Manuel Goepfert
Assistance : Marc-Olivier Méhu




SOURCES & CREDITS :

   NOAA       Earth
Advisory